Pontiac, Illinois
Current Conditions -  °F | °C
As of 9:55 AM on Saturday 25 Oct 2014 (Local Time) from KPNT Reporting Station
Haze Haze  
Wind Chill: 59°   Ceiling: 400
Heat Index: 59°   Visibility: 3mi
Dew Point: 57°   Wind: 7mph
Humidity: 94%   Direction: 270°W
Pressure: 30"   Gusts: NA
Location:  40.88°N, 88.63°W
Report Text: KPNT 251455Z AUTO 27006KT 3SM BR OVC004 15/14 A3000 RMK AO2 T01490140
Loading
Personal Weather Stations






























Interactive Weather Map
Tropical Storm Tracking
New forecast layout! Learn more

10-Day Weather Forecast

Advertisements
Track Severe Weather on mobile